Time;durP1;ratioP1;P1;durP2;ratioP2;P2;SDS_P1;SDS_P2;PMS_P1;PMS_P2;Temp;Humidity;BMP_temperature;BMP_pressure;BME280_temperature;BME280_humidity;BME280_pressure;Samples;Min_cycle;Max_cycle;Signal;HPM_P1;HPM_P2
2022/01/20 00:00:20;;;;;;;26.95;6.93;;;3.30;99.90;;;;;;4996893;28;20064;-87
2022/01/20 00:02:55;;;;;;;28.85;5.90;;;3.30;99.90;;;;;;4995976;28;20037;-87
2022/01/20 00:27:23;;;;;;;16.98;3.97;;;3.20;99.90;;;;;;5012706;28;20096;-87
2022/01/20 00:32:49;;;;;;;16.42;3.00;;;3.30;99.90;;;;;;4999850;28;20435;-87
2022/01/20 00:35:20;;;;;;;23.95;4.05;;;3.30;99.90;;;;;;5010397;28;20140;-87
2022/01/20 00:37:45;;;;;;;17.85;3.45;;;3.40;99.90;;;;;;4994870;28;20467;-88
2022/01/20 00:40:12;;;;;;;23.15;4.65;;;3.40;99.90;;;;;;4994874;28;20037;-87
2022/01/20 00:42:38;;;;;;;13.35;3.22;;;3.50;99.90;;;;;;4995002;28;20029;-88
2022/01/20 00:45:04;;;;;;;19.35;3.78;;;3.60;99.90;;;;;;4994978;28;20026;-87
2022/01/20 00:47:30;;;;;;;22.08;3.75;;;3.70;99.90;;;;;;4994411;28;20064;-88
2022/01/20 00:49:55;;;;;;;22.48;3.20;;;3.80;99.90;;;;;;4994902;28;20058;-87
2022/01/20 00:52:21;;;;;;;20.67;4.10;;;3.80;99.90;;;;;;4994340;28;20571;-87
2022/01/20 00:54:47;;;;;;;21.08;3.90;;;3.90;99.90;;;;;;4994796;28;20046;-87
2022/01/20 00:57:13;;;;;;;18.70;3.38;;;3.90;99.90;;;;;;4988023;28;20487;-87
2022/01/20 00:59:39;;;;;;;22.50;3.45;;;3.90;99.90;;;;;;5011046;28;20033;-88
2022/01/20 01:02:08;;;;;;;17.92;3.13;;;3.80;99.90;;;;;;4994604;28;20030;-86
2022/01/20 01:04:35;;;;;;;20.42;3.28;;;3.80;99.90;;;;;;4994179;28;20065;-88
2022/01/20 01:09:26;;;;;;;24.00;4.43;;;3.70;99.90;;;;;;5012777;28;20106;-87
2022/01/20 01:11:57;;;;;;;29.05;4.35;;;3.70;99.90;;;;;;4994642;28;20018;-87
2022/01/20 01:14:23;;;;;;;23.35;4.32;;;3.70;99.90;;;;;;4995243;28;20025;-88
2022/01/20 01:22:20;;;;;;;20.65;4.07;;;3.80;99.90;;;;;;4996364;28;20105;-87
2022/01/20 01:24:52;;;;;;;21.88;4.00;;;3.80;99.90;;;;;;4978781;28;20030;-88
2022/01/20 01:27:19;;;;;;;22.30;3.95;;;3.70;99.90;;;;;;4978811;28;20117;-88
2022/01/20 01:30:06;;;;;;;14.23;3.80;;;3.70;99.90;;;;;;4978608;28;20130;-88
2022/01/20 01:32:50;;;;;;;21.50;3.83;;;3.80;99.90;;;;;;4978331;28;20400;-87
2022/01/20 01:35:16;;;;;;;;;;;3.80;99.90;;;;;;4995234;28;20049;-87
2022/01/20 01:40:10;;;;;;;20.15;2.85;;;3.70;99.90;;;;;;4996663;28;20484;-87
2022/01/20 01:42:48;;;;;;;17.45;2.85;;;3.70;99.90;;;;;;4997763;28;20026;-87
2022/01/20 01:45:29;;;;;;;17.25;3.15;;;3.80;99.90;;;;;;4997823;28;20017;-87
2022/01/20 01:47:56;;;;;;;20.45;3.95;;;3.80;99.90;;;;;;4981086;28;20392;-87
2022/01/20 01:50:25;;;;;;;13.80;4.45;;;3.90;99.90;;;;;;4996610;28;20014;-88
2022/01/20 01:52:52;;;;;;;15.32;2.20;;;3.90;99.90;;;;;;4997214;28;20041;-87
2022/01/20 01:55:17;;;;;;;10.55;2.05;;;3.90;99.90;;;;;;4997122;28;20026;-87
2022/01/20 01:57:45;;;;;;;12.10;1.95;;;3.90;99.90;;;;;;4996982;28;20096;-87
2022/01/20 02:00:12;;;;;;;14.75;2.30;;;3.90;99.90;;;;;;4980014;28;20113;-88
2022/01/20 02:02:38;;;;;;;20.00;2.75;;;4.00;99.90;;;;;;4988995;28;20018;-86
2022/01/20 02:05:05;;;;;;;14.82;2.53;;;4.00;99.90;;;;;;4999299;28;20046;-87
2022/01/20 02:08:27;;;;;;;21.27;2.90;;;4.10;99.90;;;;;;4998656;28;20025;-87
2022/01/20 02:21:07;;;;;;;12.15;1.95;;;4.30;99.90;;;;;;4996425;28;20034;-88
2022/01/20 02:23:33;;;;;;;15.88;3.03;;;4.30;99.90;;;;;;4978198;28;20038;-88
2022/01/20 02:25:59;;;;;;;19.52;2.30;;;4.20;99.90;;;;;;4997420;28;20033;-88
2022/01/20 02:28:27;;;;;;;13.90;2.40;;;4.20;99.90;;;;;;4997262;28;20109;-87
2022/01/20 02:30:53;;;;;;;17.42;2.10;;;4.20;99.90;;;;;;4997708;28;20060;-89
2022/01/20 02:33:22;;;;;;;13.55;2.00;;;4.10;99.90;;;;;;4997694;28;20476;-87
2022/01/20 02:35:53;;;;;;;10.43;1.80;;;4.10;99.90;;;;;;4997556;28;20053;-87
2022/01/20 02:38:57;;;;;;;19.27;2.67;;;4.00;99.90;;;;;;4994914;28;20032;-87
2022/01/20 02:46:41;;;;;;;17.13;1.80;;;3.90;99.90;;;;;;4995958;28;20118;-87
2022/01/20 02:49:07;;;;;;;10.88;1.52;;;3.90;99.90;;;;;;4979914;28;20014;-87
2022/01/20 02:51:34;;;;;;;15.60;2.42;;;4.00;99.90;;;;;;4986508;28;20046;-87
2022/01/20 02:54:00;;;;;;;11.60;2.30;;;4.00;99.90;;;;;;4997299;28;20033;-88
2022/01/20 02:56:25;;;;;;;15.18;2.03;;;4.00;99.90;;;;;;5013614;28;20026;-87
2022/01/20 02:58:51;;;;;;;14.73;2.33;;;4.00;99.90;;;;;;5008102;28;20018;-86
2022/01/20 03:01:17;;;;;;;12.52;2.00;;;3.90;99.90;;;;;;4993537;28;20034;-86
2022/01/20 03:03:43;;;;;;;11.70;2.42;;;3.90;99.90;;;;;;4998908;28;20034;-86
2022/01/20 03:06:08;;;;;;;8.30;1.58;;;3.80;99.90;;;;;;4989820;28;20026;-87
2022/01/20 03:08:34;;;;;;;14.93;2.53;;;3.80;99.90;;;;;;4996471;28;20029;-87
2022/01/20 03:11:00;;;;;;;13.52;2.30;;;3.80;99.90;;;;;;5001775;28;20076;-87
2022/01/20 03:13:25;;;;;;;9.57;1.42;;;3.80;99.90;;;;;;4986484;28;20019;-86
2022/01/20 03:15:53;;;;;;;11.82;1.83;;;3.90;99.90;;;;;;4978542;28;20089;-87
2022/01/20 03:18:18;;;;;;;17.20;2.35;;;4.00;99.90;;;;;;4996980;28;20476;-87
2022/01/20 03:20:45;;;;;;;17.02;2.60;;;4.00;99.90;;;;;;4991415;28;20073;-88
2022/01/20 03:23:11;;;;;;;11.57;2.28;;;4.10;99.90;;;;;;4986409;28;20037;-87
2022/01/20 03:25:36;;;;;;;19.23;2.15;;;4.10;99.90;;;;;;4997022;28;20510;-87
2022/01/20 03:28:02;;;;;;;10.63;2.03;;;4.20;99.90;;;;;;4997309;28;20025;-88
2022/01/20 03:30:28;;;;;;;15.35;1.77;;;4.20;99.90;;;;;;5000085;28;20026;-86
2022/01/20 03:32:54;;;;;;;14.27;2.00;;;4.20;99.90;;;;;;5000646;28;20022;-87
2022/01/20 03:35:19;;;;;;;19.95;2.03;;;4.20;99.90;;;;;;5000281;28;20026;-87
2022/01/20 03:37:45;;;;;;;18.38;1.95;;;4.20;99.90;;;;;;4986430;28;20109;-87
2022/01/20 03:40:11;;;;;;;8.60;1.90;;;4.20;99.90;;;;;;4981217;28;20026;-87
2022/01/20 03:42:37;;;;;;;13.63;1.90;;;4.30;99.90;;;;;;4980994;28;20030;-87
2022/01/20 03:45:04;;;;;;;12.45;1.80;;;4.30;99.90;;;;;;4989557;28;20121;-87
2022/01/20 03:47:30;;;;;;;13.02;1.90;;;4.30;99.90;;;;;;4999837;28;20084;-87
2022/01/20 03:52:24;;;;;;;17.33;2.22;;;4.30;99.90;;;;;;5014125;28;20022;-87
2022/01/20 03:54:50;;;;;;;14.05;1.52;;;4.30;99.90;;;;;;4980498;28;20060;-87
2022/01/20 03:57:15;;;;;;;12.27;3.13;;;4.30;99.90;;;;;;4980102;28;20034;-87
2022/01/20 03:59:41;;;;;;;11.88;1.55;;;4.30;99.90;;;;;;4993695;28;20029;-87
2022/01/20 04:02:07;;;;;;;11.88;2.13;;;4.20;99.90;;;;;;4999492;28;20113;-87
2022/01/20 04:04:32;;;;;;;10.60;1.27;;;4.30;99.90;;;;;;4994589;28;20049;-87
2022/01/20 04:06:58;;;;;;;10.88;2.17;;;4.30;99.90;;;;;;4987779;28;20025;-88
2022/01/20 04:09:23;;;;;;;9.85;1.52;;;4.20;99.90;;;;;;5000038;28;20018;-88
2022/01/20 04:11:51;;;;;;;11.88;2.05;;;4.30;99.90;;;;;;4999119;28;20030;-87
2022/01/20 04:14:16;;;;;;;9.73;1.13;;;4.30;99.90;;;;;;4996908;28;20018;-87
2022/01/20 04:19:27;;;;;;;8.38;1.35;;;4.20;99.90;;;;;;5005037;28;20023;-87
2022/01/20 04:21:53;;;;;;;14.02;2.33;;;4.20;99.90;;;;;;4979105;28;20077;-87
2022/01/20 04:24:19;;;;;;;11.32;1.90;;;4.30;99.90;;;;;;4979254;28;20030;-85
2022/01/20 04:26:46;;;;;;;11.65;1.48;;;4.30;99.90;;;;;;4978888;28;20018;-87
2022/01/20 04:29:13;;;;;;;9.32;1.27;;;4.30;99.90;;;;;;4989155;28;20468;-86
2022/01/20 04:31:40;;;;;;;12.48;2.10;;;4.30;99.90;;;;;;4998822;28;20384;-86
2022/01/20 04:34:07;;;;;;;10.35;1.50;;;4.30;99.90;;;;;;4998457;28;20030;-86
2022/01/20 04:36:37;;;;;;;8.50;1.98;;;4.30;99.90;;;;;;4998513;28;20026;-86
2022/01/20 04:39:06;;;;;;;14.23;1.90;;;4.30;99.90;;;;;;4998171;28;20022;-87
2022/01/20 04:41:32;;;;;;;9.73;1.75;;;4.30;99.90;;;;;;4996870;28;20018;-87
2022/01/20 04:44:00;;;;;;;7.55;1.15;;;4.30;99.90;;;;;;4982449;28;20376;-87
2022/01/20 04:46:42;;;;;;;15.13;2.13;;;4.30;99.90;;;;;;4978882;28;20026;-87
2022/01/20 04:57:21;;;;;;;9.88;2.75;;;4.20;99.90;;;;;;4996323;28;20097;-86
2022/01/20 04:59:53;;;;;;;14.32;1.30;;;4.20;99.90;;;;;;4992928;28;20056;-86
2022/01/20 05:02:19;;;;;;;8.45;1.00;;;4.20;99.90;;;;;;4997799;28;20646;-86
2022/01/20 05:04:46;;;;;;;8.60;1.02;;;4.20;99.90;;;;;;4998043;28;20122;-87
2022/01/20 05:07:19;;;;;;;9.50;1.10;;;4.20;99.90;;;;;;4988300;28;20027;-87
2022/01/20 05:09:45;;;;;;;6.82;1.17;;;4.20;99.90;;;;;;4992171;28;20143;-86
2022/01/20 05:12:17;;;;;;;7.43;1.10;;;4.20;99.90;;;;;;4996080;28;20026;-86
2022/01/20 05:14:43;;;;;;;9.63;1.50;;;4.20;99.90;;;;;;4978363;28;20026;-86
2022/01/20 05:17:09;;;;;;;4.97;0.80;;;4.20;99.90;;;;;;4978452;28;20519;-87
2022/01/20 05:19:34;;;;;;;8.48;1.00;;;4.20;99.90;;;;;;4978623;28;20433;-85
2022/01/20 05:22:01;;;;;;;9.13;1.38;;;4.20;99.90;;;;;;4993520;28;20044;-86
2022/01/20 05:24:27;;;;;;;6.95;1.30;;;4.20;99.90;;;;;;5015367;28;20541;-87
2022/01/20 05:26:55;;;;;;;11.73;1.50;;;4.20;99.90;;;;;;4990197;28;20114;-85
2022/01/20 05:29:22;;;;;;;10.75;2.00;;;4.20;99.90;;;;;;4988165;28;20030;-85
2022/01/20 05:31:48;;;;;;;11.10;1.80;;;4.20;99.90;;;;;;5010219;28;20476;-87
2022/01/20 05:34:15;;;;;;;14.13;2.38;;;4.20;99.90;;;;;;4981513;28;20040;-86
2022/01/20 05:36:42;;;;;;;12.18;1.67;;;4.20;99.90;;;;;;4988158;28;20034;-85
2022/01/20 05:39:09;;;;;;;8.43;1.77;;;4.20;99.90;;;;;;4984191;28;20022;-88
2022/01/20 05:41:35;;;;;;;19.02;2.47;;;4.20;99.90;;;;;;4994187;28;20022;-86
2022/01/20 05:44:01;;;;;;;14.55;2.17;;;4.20;99.90;;;;;;4978610;28;20046;-89
2022/01/20 05:46:34;;;;;;;9.82;1.70;;;4.20;99.90;;;;;;4996332;28;20038;-85
2022/01/20 05:49:08;;;;;;;13.80;1.85;;;4.20;99.90;;;;;;5003592;28;20028;-85
2022/01/20 05:51:38;;;;;;;17.75;2.53;;;4.10;99.90;;;;;;4985831;28;20049;-86
2022/01/20 05:54:04;;;;;;;11.35;2.20;;;4.10;99.90;;;;;;5009324;28;20083;-85
2022/01/20 05:56:30;;;;;;;14.00;2.15;;;4.10;99.90;;;;;;4977393;28;20117;-85
2022/01/20 05:58:56;;;;;;;22.00;3.10;;;4.10;99.90;;;;;;5002112;28;20643;-86
2022/01/20 06:01:21;;;;;;;28.15;3.95;;;4.10;99.90;;;;;;4984129;28;20059;-84
2022/01/20 06:03:47;;;;;;;19.13;3.03;;;4.10;99.90;;;;;;4979317;28;20041;-86
2022/01/20 06:06:13;;;;;;;23.30;3.83;;;4.00;99.90;;;;;;4975717;28;20709;-86
2022/01/20 06:08:44;;;;;;;18.55;3.63;;;4.10;99.90;;;;;;4994611;28;20026;-86
2022/01/20 06:11:10;;;;;;;19.52;3.67;;;4.10;99.90;;;;;;4994650;28;20539;-85
2022/01/20 06:13:36;;;;;;;15.27;2.15;;;4.00;99.90;;;;;;4990032;28;20022;-85
2022/01/20 06:16:03;;;;;;;14.98;3.15;;;4.00;99.90;;;;;;5014076;28;20121;-86
2022/01/20 06:18:29;;;;;;;14.50;2.42;;;4.00;99.90;;;;;;4996697;28;20018;-86
2022/01/20 06:20:55;;;;;;;13.43;1.92;;;4.00;99.90;;;;;;4989168;28;20015;-86
2022/01/20 06:23:24;;;;;;;15.00;2.50;;;4.00;99.90;;;;;;4976986;28;20034;-87
2022/01/20 06:25:51;;;;;;;17.38;2.85;;;4.00;99.90;;;;;;5009383;28;20543;-87
2022/01/20 06:28:17;;;;;;;14.80;2.92;;;4.00;99.90;;;;;;5014084;28;20104;-86
2022/01/20 06:30:43;;;;;;;16.42;2.72;;;4.00;99.90;;;;;;5013843;28;20463;-85
2022/01/20 06:33:09;;;;;;;11.95;2.45;;;3.90;99.90;;;;;;5004111;28;20035;-86
2022/01/20 06:35:35;;;;;;;10.95;2.00;;;3.90;99.90;;;;;;4976929;28;20045;-86
2022/01/20 06:38:02;;;;;;;13.20;1.90;;;3.90;99.90;;;;;;4992661;28;20034;-84
2022/01/20 06:40:30;;;;;;;13.75;2.67;;;3.90;99.90;;;;;;4980539;28;20413;-86
2022/01/20 06:42:55;;;;;;;9.60;1.58;;;3.90;99.90;;;;;;4988510;28;20162;-85
2022/01/20 06:45:23;;;;;;;8.13;1.45;;;3.90;99.90;;;;;;4987055;28;20034;-85
2022/01/20 06:47:48;;;;;;;17.45;2.30;;;3.90;99.90;;;;;;4995028;28;20029;-85
2022/01/20 06:50:14;;;;;;;13.88;2.33;;;3.90;99.90;;;;;;4996973;28;20030;-86
2022/01/20 06:52:40;;;;;;;9.35;1.50;;;3.80;99.90;;;;;;5013457;28;20030;-85
2022/01/20 06:55:10;;;;;;;10.80;2.17;;;3.80;99.90;;;;;;4996581;28;20053;-87
2022/01/20 06:57:36;;;;;;;15.23;2.33;;;3.80;99.90;;;;;;5013938;28;20026;-86
2022/01/20 07:00:16;;;;;;;13.73;1.95;;;3.80;99.90;;;;;;4996231;28;20033;-86
2022/01/20 07:02:43;;;;;;;10.02;1.95;;;3.80;99.90;;;;;;4990588;28;20065;-86
2022/01/20 07:05:11;;;;;;;14.10;1.75;;;3.80;99.90;;;;;;4988966;28;20137;-87
2022/01/20 07:07:36;;;;;;;9.07;1.58;;;3.80;99.90;;;;;;4999669;28;20431;-86
2022/01/20 07:10:03;;;;;;;13.05;1.48;;;3.70;99.90;;;;;;5000087;28;20026;-86
2022/01/20 07:12:29;;;;;;;11.10;1.95;;;3.70;99.90;;;;;;4995481;28;20023;-86
2022/01/20 07:14:54;;;;;;;6.10;1.50;;;3.70;99.90;;;;;;4980394;28;20081;-85
2022/01/20 07:17:20;;;;;;;6.95;1.50;;;3.60;99.90;;;;;;4990792;28;20220;-85
2022/01/20 07:19:46;;;;;;;4.50;1.13;;;3.60;99.90;;;;;;5000641;28;20025;-86
2022/01/20 07:22:11;;;;;;;12.02;2.17;;;3.60;99.90;;;;;;4999166;28;20044;-86
2022/01/20 07:24:38;;;;;;;6.75;1.25;;;3.60;99.90;;;;;;5012023;28;20026;-86
2022/01/20 07:27:04;;;;;;;3.60;0.80;;;3.50;99.90;;;;;;4979204;28;20033;-85
2022/01/20 07:29:31;;;;;;;7.60;1.10;;;3.50;99.90;;;;;;4996778;28;20022;-85
2022/01/20 07:31:59;;;;;;;10.10;1.20;;;3.50;99.90;;;;;;4997662;28;20030;-87
2022/01/20 07:34:25;;;;;;;6.72;0.95;;;3.40;99.90;;;;;;4980100;28;20117;-86
2022/01/20 07:36:51;;;;;;;7.07;1.23;;;3.30;99.90;;;;;;4979847;28;20080;-87
2022/01/20 07:39:16;;;;;;;6.43;1.10;;;3.20;99.90;;;;;;4979793;28;20022;-85
2022/01/20 07:41:43;;;;;;;9.57;2.90;;;3.20;99.90;;;;;;4979782;28;20027;-86
2022/01/20 07:44:09;;;;;;;8.93;1.38;;;3.10;99.90;;;;;;4997186;28;20108;-86
2022/01/20 07:46:35;;;;;;;8.35;1.30;;;3.00;99.90;;;;;;4998905;28;20522;-85
2022/01/20 07:49:01;;;;;;;8.25;1.42;;;3.00;99.90;;;;;;5016257;28;20034;-86
2022/01/20 07:51:26;;;;;;;6.53;0.88;;;3.00;99.90;;;;;;5016471;28;20068;-84
2022/01/20 07:53:52;;;;;;;5.90;1.00;;;3.10;99.90;;;;;;4999130;28;20022;-86
2022/01/20 07:56:18;;;;;;;7.50;1.20;;;3.20;99.90;;;;;;5016144;28;20496;-84
2022/01/20 07:58:43;;;;;;;5.53;1.20;;;3.20;99.90;;;;;;5010135;28;20023;-84
2022/01/20 08:01:09;;;;;;;8.13;1.23;;;3.30;99.90;;;;;;4987593;28;20026;-85
2022/01/20 08:03:35;;;;;;;7.78;1.27;;;3.30;99.90;;;;;;4998025;28;20515;-86
2022/01/20 08:06:01;;;;;;;13.45;1.08;;;3.30;99.90;;;;;;4982812;28;20030;-86
2022/01/20 08:08:26;;;;;;;9.32;1.65;;;3.30;99.90;;;;;;4982820;28;20010;-85
2022/01/20 08:10:52;;;;;;;12.93;1.48;;;3.40;99.90;;;;;;5016474;28;20050;-85
2022/01/20 08:13:17;;;;;;;8.68;1.30;;;3.50;99.90;;;;;;5016726;28;20022;-86
2022/01/20 08:15:44;;;;;;;9.43;1.50;;;3.50;99.90;;;;;;5015244;28;20019;-87
2022/01/20 08:18:10;;;;;;;7.00;1.17;;;3.50;99.90;;;;;;4998777;28;20025;-86
2022/01/20 08:20:36;;;;;;;7.07;1.30;;;3.50;99.90;;;;;;4998721;28;20026;-85
2022/01/20 08:23:02;;;;;;;6.82;1.30;;;3.60;99.90;;;;;;4998424;28;20418;-85
2022/01/20 08:25:28;;;;;;;6.55;1.38;;;3.60;99.90;;;;;;4986813;28;20090;-85
2022/01/20 08:27:54;;;;;;;7.38;1.20;;;3.60;99.90;;;;;;4978868;28;20462;-85
2022/01/20 08:30:21;;;;;;;7.57;1.67;;;3.70;99.90;;;;;;4981182;28;20065;-85
2022/01/20 08:32:48;;;;;;;4.60;0.85;;;3.70;99.90;;;;;;4998362;28;20021;-85
2022/01/20 08:35:14;;;;;;;12.45;1.88;;;3.70;99.90;;;;;;5016374;28;20025;-87
2022/01/20 08:37:44;;;;;;;5.40;1.08;;;3.70;99.90;;;;;;4997900;28;20036;-88
2022/01/20 08:40:13;;;;;;;8.40;1.20;;;3.70;99.90;;;;;;4981756;28;20010;-88
2022/01/20 08:42:43;;;;;;;6.15;1.10;;;3.70;99.90;;;;;;4992276;28;20026;-86
2022/01/20 08:45:10;;;;;;;6.57;1.38;;;3.80;99.90;;;;;;5004777;28;20026;-85
2022/01/20 08:47:36;;;;;;;4.55;1.10;;;3.80;99.90;;;;;;4984867;28;20034;-85
2022/01/20 08:50:06;;;;;;;6.55;1.10;;;3.90;99.90;;;;;;4996826;28;20085;-85
2022/01/20 08:52:32;;;;;;;4.97;0.95;;;3.90;99.90;;;;;;5000312;28;20018;-86
2022/01/20 08:54:58;;;;;;;7.38;1.27;;;3.90;99.90;;;;;;4997814;28;20073;-86
2022/01/20 08:57:25;;;;;;;9.73;1.23;;;3.90;99.90;;;;;;4997400;28;20037;-85
2022/01/20 08:59:51;;;;;;;10.77;2.22;;;4.00;99.90;;;;;;4997702;28;20092;-85
2022/01/20 09:02:17;;;;;;;6.78;1.80;;;4.10;99.90;;;;;;5015047;28;20034;-86
2022/01/20 09:04:43;;;;;;;6.82;1.17;;;4.20;99.90;;;;;;5008826;28;20050;-86
2022/01/20 09:07:09;;;;;;;8.40;1.20;;;4.30;99.90;;;;;;4995533;28;20022;-86
2022/01/20 09:09:40;;;;;;;10.18;1.70;;;4.30;99.90;;;;;;4991153;28;20033;-85
2022/01/20 09:17:21;;;;;;;13.02;1.52;;;4.10;99.90;;;;;;4995417;28;20050;-86
2022/01/20 09:19:47;;;;;;;18.38;1.80;;;4.00;99.90;;;;;;4991292;28;20022;-85
2022/01/20 09:22:13;;;;;;;10.13;2.25;;;3.80;99.90;;;;;;4977667;28;20553;-85
2022/01/20 09:24:39;;;;;;;11.50;2.72;;;3.60;99.90;;;;;;4981925;28;20020;-84
2022/01/20 09:27:05;;;;;;;10.70;2.33;;;3.50;99.90;;;;;;4996425;28;20096;-85
2022/01/20 09:29:30;;;;;;;14.98;1.65;;;3.50;99.90;;;;;;4984664;28;20022;-85
2022/01/20 09:31:56;;;;;;;10.70;1.75;;;3.50;99.90;;;;;;4992581;28;20208;-85
2022/01/20 09:34:24;;;;;;;13.13;2.90;;;3.50;99.90;;;;;;4993261;28;20023;-86
2022/01/20 09:36:50;;;;;;;11.85;1.92;;;3.40;99.90;;;;;;5001282;28;20030;-84
2022/01/20 09:39:15;;;;;;;15.48;2.33;;;3.40;99.90;;;;;;4986566;28;20072;-84
2022/01/20 09:41:43;;;;;;;14.68;3.15;;;3.50;99.90;;;;;;4977664;28;20023;-84
2022/01/20 09:44:09;;;;;;;10.55;1.90;;;3.50;99.90;;;;;;4995948;28;20478;-85
2022/01/20 09:46:35;;;;;;;8.55;1.45;;;3.50;99.90;;;;;;4996701;28;20037;-85
2022/01/20 09:49:01;;;;;;;9.10;1.50;;;3.60;99.90;;;;;;4995382;28;20034;-85
2022/01/20 09:51:27;;;;;;;8.75;1.20;;;3.60;99.90;;;;;;4983666;28;20077;-84
2022/01/20 09:53:53;;;;;;;8.63;1.67;;;4.30;99.90;;;;;;4991002;28;20025;-84
2022/01/20 09:56:18;;;;;;;6.78;1.40;;;5.60;99.90;;;;;;5010061;28;20687;-85
2022/01/20 09:58:45;;;;;;;12.60;1.70;;;7.00;99.90;;;;;;4998166;28;20468;-84
2022/01/20 21:37:11;;;;;;;5.07;1.05;;;1.80;99.90;;;;;;5041077;28;20057;-90
2022/01/20 21:39:36;;;;;;;5.30;0.95;;;1.80;99.90;;;;;;5046985;28;20024;-90
2022/01/20 21:42:03;;;;;;;7.85;1.50;;;1.80;99.90;;;;;;5033096;28;20028;-90
2022/01/20 21:44:29;;;;;;;7.53;1.67;;;1.80;99.90;;;;;;5034385;28;20023;-92
2022/01/20 21:46:55;;;;;;;9.35;1.73;;;1.70;99.90;;;;;;5052596;28;20029;-90
2022/01/20 21:49:22;;;;;;;9.25;1.73;;;1.80;99.90;;;;;;5033981;28;20079;-91
2022/01/20 21:51:48;;;;;;;6.50;1.30;;;1.70;99.90;;;;;;5034144;28;20028;-92
2022/01/20 21:54:14;;;;;;;9.32;1.52;;;1.70;99.90;;;;;;5034136;28;20021;-90
2022/01/20 21:56:39;;;;;;;8.82;1.90;;;1.70;99.90;;;;;;5050065;28;20033;-89
2022/01/20 21:59:05;;;;;;;9.13;1.90;;;1.80;99.90;;;;;;5030864;28;20810;-89
2022/01/20 22:01:31;;;;;;;6.90;1.48;;;1.90;99.90;;;;;;5030553;28;20032;-92
2022/01/20 22:03:57;;;;;;;5.70;1.63;;;1.90;99.90;;;;;;5031812;28;20028;-91
2022/01/20 22:06:23;;;;;;;5.97;1.25;;;2.00;99.90;;;;;;5034416;28;20021;-94
2022/01/20 22:08:49;;;;;;;6.93;1.60;;;2.10;99.90;;;;;;5014773;28;20030;-90
2022/01/20 22:11:15;;;;;;;5.43;1.33;;;2.20;99.90;;;;;;5021435;28;20044;-88
2022/01/20 22:13:44;;;;;;;7.80;1.38;;;2.20;99.90;;;;;;5041733;28;20028;-92
2022/01/20 22:16:12;;;;;;;4.70;1.33;;;2.20;99.90;;;;;;5037065;28;20024;-90
2022/01/20 22:18:38;;;;;;;5.03;1.42;;;2.30;99.90;;;;;;5033166;28;20017;-91
2022/01/20 22:21:07;;;;;;;5.45;1.63;;;2.30;99.90;;;;;;5034501;28;20022;-91
2022/01/20 22:23:33;;;;;;;8.63;1.67;;;2.30;99.90;;;;;;5032223;28;20029;-89
2022/01/20 22:26:01;;;;;;;6.43;1.30;;;2.30;99.90;;;;;;5030631;28;20104;-91
2022/01/20 22:28:28;;;;;;;5.15;1.52;;;2.40;99.90;;;;;;5032589;28;20121;-91
2022/01/20 22:30:54;;;;;;;7.43;1.63;;;2.40;99.90;;;;;;5031601;28;20029;-91
2022/01/20 22:33:20;;;;;;;8.73;1.60;;;2.40;99.90;;;;;;5032747;28;20091;-91
2022/01/20 22:35:46;;;;;;;10.48;1.88;;;2.40;99.90;;;;;;5031317;28;20506;-89
2022/01/20 22:38:11;;;;;;;6.82;1.40;;;2.40;99.90;;;;;;5035658;28;20029;-89
2022/01/20 22:40:40;;;;;;;6.05;1.10;;;2.50;99.90;;;;;;5022135;28;20116;-91
2022/01/20 22:43:07;;;;;;;9.63;1.70;;;2.50;99.90;;;;;;5034454;28;20021;-92
2022/01/20 22:45:38;;;;;;;10.80;1.52;;;2.50;99.90;;;;;;5032102;28;20047;-92
2022/01/20 22:48:05;;;;;;;6.22;1.58;;;2.60;99.90;;;;;;5032103;28;20021;-91
2022/01/20 22:50:32;;;;;;;11.07;2.30;;;2.60;99.90;;;;;;5033576;28;20081;-91
2022/01/20 22:52:58;;;;;;;6.63;1.90;;;2.60;99.90;;;;;;5033698;28;20021;-92
2022/01/20 22:55:23;;;;;;;6.88;1.65;;;2.60;99.90;;;;;;5033212;28;20033;-92
2022/01/20 22:57:49;;;;;;;9.00;1.63;;;2.60;99.90;;;;;;5033729;28;20033;-92
2022/01/20 23:00:20;;;;;;;6.18;1.55;;;2.50;99.90;;;;;;5034174;28;20032;-92
2022/01/20 23:02:48;;;;;;;7.22;2.42;;;2.40;99.90;;;;;;5013785;28;20029;-91
2022/01/20 23:05:14;;;;;;;7.05;1.70;;;2.30;99.90;;;;;;5014132;28;20026;-92
2022/01/20 23:07:40;;;;;;;7.35;1.98;;;2.30;99.90;;;;;;5030818;28;20056;-92
2022/01/20 23:10:10;;;;;;;7.10;1.80;;;2.20;99.90;;;;;;5033992;28;20033;-91
2022/01/20 23:12:37;;;;;;;5.28;1.85;;;2.20;99.90;;;;;;5032782;28;20025;-91
2022/01/20 23:15:07;;;;;;;6.13;2.08;;;2.20;99.90;;;;;;5024635;28;20025;-91
2022/01/20 23:17:48;;;;;;;5.13;1.23;;;2.20;99.90;;;;;;5034766;28;20120;-91
2022/01/20 23:22:59;;;;;;;5.22;1.30;;;2.20;99.90;;;;;;5033332;28;20493;-92
2022/01/20 23:25:26;;;;;;;5.15;1.10;;;2.10;99.90;;;;;;5015546;28;20116;-91
2022/01/20 23:27:52;;;;;;;7.20;1.30;;;2.10;99.90;;;;;;5025735;28;20025;-91
2022/01/20 23:30:18;;;;;;;7.95;1.50;;;2.10;99.90;;;;;;5033537;28;20033;-91
2022/01/20 23:32:44;;;;;;;9.35;1.52;;;1.90;99.90;;;;;;5033143;28;20068;-91
2022/01/20 23:35:10;;;;;;;3.72;1.10;;;1.90;99.90;;;;;;5031962;28;20037;-91
2022/01/20 23:37:36;;;;;;;7.07;1.33;;;1.90;99.90;;;;;;5019755;28;20045;-91
2022/01/20 23:40:03;;;;;;;9.73;1.42;;;2.00;99.90;;;;;;5008396;28;20032;-90
2022/01/20 23:42:38;;;;;;;9.38;2.08;;;2.00;99.90;;;;;;5026132;28;20081;-91
2022/01/20 23:45:22;;;;;;;11.88;2.47;;;2.10;99.90;;;;;;5026769;28;20096;-92
2022/01/20 23:50:32;;;;;;;8.82;1.75;;;2.30;99.90;;;;;;5044597;28;19931;-91
2022/01/20 23:52:58;;;;;;;5.53;1.55;;;2.30;99.90;;;;;;5015639;28;20037;-89
2022/01/20 23:55:24;;;;;;;5.78;1.08;;;2.30;99.90;;;;;;5019186;28;20032;-91
2022/01/20 23:57:49;;;;;;;4.35;0.98;;;2.30;99.90;;;;;;5019379;28;20508;-91
